Marianne — VRFM5 — position and weather

sailwx.info

Track history (hours):
 
Tides and Currents Weather Stations Pressure Air Temp Water Temp Dewpoint Dewpoint Depression Visibility Wind Speed Wind Dir Waves Ship Positions

Marianne

Last reported at 2014-Sep-30 20:19 UTC. Time now 2014-Oct-01 10:28 UTC.
Position N 59°14' E 005°31'.

Length 97 m; draft 5.5 m.

Type: Ship (hazmat cat B). MMSI: 477560836.

Date/timePositionNaut miles runAvg speedWind from/ knotsBaromVisibWave heightAir tempDewpointWater temp
2014-Sep-30 20:19N 59°14' E 005°31'0 0.0
2014-Sep-30 18:10N 59°14' E 005°31'0 0.0
2014-Sep-30 07:31N 59°14' E 005°31'0 0.0
2014-Sep-30 06:28N 59°14' E 005°31'0 0.0
2014-Sep-30 05:28N 59°14' E 005°31'0 0.0
2014-Sep-30 04:13N 59°14' E 005°31'0 0.0
2014-Sep-30 03:28N 59°14' E 005°31'0 0.0
2014-Sep-30 02:31N 59°14' E 005°31'0 0.0
2014-Sep-30 00:16N 59°14' E 005°31'0 0.0
2014-Sep-29 23:28N 59°14' E 005°31'0 0.0
2014-Sep-29 22:04N 59°14' E 005°31'0 0.0
2014-Sep-29 21:31N 59°14' E 005°31'0 0.0
2014-Sep-29 20:16N 59°14' E 005°31'0 0.0
2014-Sep-29 19:19N 59°14' E 005°31'0 0.0
2014-Sep-29 18:28N 59°14' E 005°31'0 0.0
2014-Sep-29 17:28N 59°14' E 005°31'0 0.0
2014-Sep-29 16:28N 59°14' E 005°31'3 1.8
2014-Sep-29 14:32N 59°11' E 005°32'1111.7
2014-Sep-29 13:33N 59°03' E 005°15'7 7.0
2014-Sep-29 12:33N 59°03' E 005°01'  
2014-Sep-20 23:33N 59°06' E 005°02'1111.0
2014-Sep-20 22:33N 59°06' E 005°24'9 9.1
2014-Sep-20 21:33N 59°15' E 005°31'2 1.7
2014-Sep-20 20:33N 59°16' E 005°30'  
Track history (hours):
 
Tides and Currents Weather Stations Pressure Air Temp Water Temp Dewpoint Dewpoint Depression Visibility Wind Speed Wind Dir Waves Ship Positions

Marianne

Last reported at 2014-Sep-30 20:19 UTC. Time now 2014-Oct-01 10:28 UTC.
Position N 59°14' E 005°31'.

Length 97 m; draft 5.5 m.

Type: Ship (hazmat cat B). MMSI: 477560836.

Date/timePositionNaut miles runAvg speedWind from/ knotsBaromVisibWave heightAir tempDewpointWater temp
2014-Sep-30 20:19N 59°14' E 005°31'0 0.0
2014-Sep-30 18:10N 59°14' E 005°31'0 0.0
2014-Sep-30 07:31N 59°14' E 005°31'0 0.0
2014-Sep-30 06:28N 59°14' E 005°31'0 0.0
2014-Sep-30 05:28N 59°14' E 005°31'0 0.0
2014-Sep-30 04:13N 59°14' E 005°31'0 0.0
2014-Sep-30 03:28N 59°14' E 005°31'0 0.0
2014-Sep-30 02:31N 59°14' E 005°31'0 0.0
2014-Sep-30 00:16N 59°14' E 005°31'0 0.0
2014-Sep-29 23:28N 59°14' E 005°31'0 0.0
2014-Sep-29 22:04N 59°14' E 005°31'0 0.0
2014-Sep-29 21:31N 59°14' E 005°31'0 0.0
2014-Sep-29 20:16N 59°14' E 005°31'0 0.0
2014-Sep-29 19:19N 59°14' E 005°31'0 0.0
2014-Sep-29 18:28N 59°14' E 005°31'0 0.0
2014-Sep-29 17:28N 59°14' E 005°31'0 0.0
2014-Sep-29 16:28N 59°14' E 005°31'3 1.8
2014-Sep-29 14:32N 59°11' E 005°32'1111.7
2014-Sep-29 13:33N 59°03' E 005°15'7 7.0
2014-Sep-29 12:33N 59°03' E 005°01'  
2014-Sep-20 23:33N 59°06' E 005°02'1111.0
2014-Sep-20 22:33N 59°06' E 005°24'9 9.1
2014-Sep-20 21:33N 59°15' E 005°31'2 1.7
2014-Sep-20 20:33N 59°16' E 005°30'  

Dump ship's entire track history